sensor_id;sensor_type;location;lat;lon;timestamp;pressure;altitude;pressure_sealevel;temperature;humidity
42691;BME280;28306;55.744;37.578;2023-04-08T00:00:18;100953.84;;;25.76;16.13
42691;BME280;28306;55.744;37.578;2023-04-08T00:02:43;100954.66;;;25.76;16.21
42691;BME280;28306;55.744;37.578;2023-04-08T00:05:08;100949.19;;;25.76;16.26
42691;BME280;28306;55.744;37.578;2023-04-08T00:07:34;100952.75;;;25.77;16.48
42691;BME280;28306;55.744;37.578;2023-04-08T00:10:00;100951.94;;;25.76;16.17
42691;BME280;28306;55.744;37.578;2023-04-08T00:12:25;100955.47;;;25.77;16.26
42691;BME280;28306;55.744;37.578;2023-04-08T00:14:51;100955.72;;;25.75;16.27
42691;BME280;28306;55.744;37.578;2023-04-08T00:17:16;100951.09;;;25.76;16.45
42691;BME280;28306;55.744;37.578;2023-04-08T00:19:42;100956.56;;;25.76;16.12
42691;BME280;28306;55.744;37.578;2023-04-08T00:22:08;100958.44;;;25.75;16.08
42691;BME280;28306;55.744;37.578;2023-04-08T00:24:34;100949.44;;;25.75;16.07
42691;BME280;28306;55.744;37.578;2023-04-08T00:27:00;100948.38;;;25.76;16.33
42691;BME280;28306;55.744;37.578;2023-04-08T00:29:27;100960.94;;;25.77;16.30
42691;BME280;28306;55.744;37.578;2023-04-08T00:31:52;100945.66;;;25.76;16.15
42691;BME280;28306;55.744;37.578;2023-04-08T00:34:18;100945.66;;;25.76;16.43
42691;BME280;28306;55.744;37.578;2023-04-08T00:36:43;100950.25;;;25.75;16.29
42691;BME280;28306;55.744;37.578;2023-04-08T00:39:11;100957.38;;;25.76;16.43
42691;BME280;28306;55.744;37.578;2023-04-08T00:41:36;100952.16;;;25.75;16.37
42691;BME280;28306;55.744;37.578;2023-04-08T00:44:02;100951.34;;;25.74;16.14
42691;BME280;28306;55.744;37.578;2023-04-08T00:46:27;100945.91;;;25.74;16.21
42691;BME280;28306;55.744;37.578;2023-04-08T00:48:53;100953.84;;;25.76;16.16
42691;BME280;28306;55.744;37.578;2023-04-08T00:51:18;100946.72;;;25.75;16.22
42691;BME280;28306;55.744;37.578;2023-04-08T00:53:44;100960.59;;;25.73;16.27
42691;BME280;28306;55.744;37.578;2023-04-08T00:56:09;100952.41;;;25.73;16.26
42691;BME280;28306;55.744;37.578;2023-04-08T00:58:35;100954.06;;;25.74;16.09
42691;BME280;28306;55.744;37.578;2023-04-08T01:01:25;100951.34;;;25.74;16.16
42691;BME280;28306;55.744;37.578;2023-04-08T01:09:00;100948.63;;;25.74;16.34
42691;BME280;28306;55.744;37.578;2023-04-08T01:11:29;100953.22;;;25.73;16.21
42691;BME280;28306;55.744;37.578;2023-04-08T01:13:57;100952.41;;;25.73;16.24
42691;BME280;28306;55.744;37.578;2023-04-08T01:16:22;100946.13;;;25.72;16.07
42691;BME280;28306;55.744;37.578;2023-04-08T01:18:49;100948.88;;;25.72;16.36
42691;BME280;28306;55.744;37.578;2023-04-08T01:21:16;100952.66;;;25.71;16.27
42691;BME280;28306;55.744;37.578;2023-04-08T01:23:50;100952.41;;;25.73;16.37
42691;BME280;28306;55.744;37.578;2023-04-08T01:26:21;100954.31;;;25.72;16.07
42691;BME280;28306;55.744;37.578;2023-04-08T01:28:48;100957.03;;;25.72;16.08
42691;BME280;28306;55.744;37.578;2023-04-08T01:31:15;100950.75;;;25.72;16.04
42691;BME280;28306;55.744;37.578;2023-04-08T01:33:41;100950.75;;;25.72;16.20
42691;BME280;28306;55.744;37.578;2023-04-08T01:36:07;100952.66;;;25.71;16.29
42691;BME280;28306;55.744;37.578;2023-04-08T01:38:36;100957.28;;;25.71;16.13
42691;BME280;28306;55.744;37.578;2023-04-08T01:41:02;100960.81;;;25.71;15.95
42691;BME280;28306;55.744;37.578;2023-04-08T01:43:28;100960.81;;;25.71;16.10
42691;BME280;28306;55.744;37.578;2023-04-08T01:45:56;100959.16;;;25.70;16.37
42691;BME280;28306;55.744;37.578;2023-04-08T01:48:22;100957.53;;;25.69;16.17
42691;BME280;28306;55.744;37.578;2023-04-08T01:50:48;100952.88;;;25.70;16.20
42691;BME280;28306;55.744;37.578;2023-04-08T01:53:15;100953.94;;;25.69;16.08
42691;BME280;28306;55.744;37.578;2023-04-08T01:55:43;100953.13;;;25.68;16.07
42691;BME280;28306;55.744;37.578;2023-04-08T01:58:17;100952.31;;;25.68;16.34
42691;BME280;28306;55.744;37.578;2023-04-08T02:00:44;100950.41;;;25.68;16.02
42691;BME280;28306;55.744;37.578;2023-04-08T02:03:12;100965.13;;;25.67;16.34
42691;BME280;28306;55.744;37.578;2023-04-08T02:05:39;100954.22;;;25.67;16.02
42691;BME280;28306;55.744;37.578;2023-04-08T02:08:05;100956.94;;;25.67;16.04
42691;BME280;28306;55.744;37.578;2023-04-08T02:10:30;100958.00;;;25.66;15.99
42691;BME280;28306;55.744;37.578;2023-04-08T02:12:56;100952.53;;;25.66;16.04
42691;BME280;28306;55.744;37.578;2023-04-08T02:15:22;100960.72;;;25.66;16.09
42691;BME280;28306;55.744;37.578;2023-04-08T02:17:52;100954.44;;;25.66;15.97
42691;BME280;28306;55.744;37.578;2023-04-08T02:20:23;100958.00;;;25.66;16.17
42691;BME280;28306;55.744;37.578;2023-04-08T02:25:55;100959.06;;;25.65;16.10
42691;BME280;28306;55.744;37.578;2023-04-08T02:28:25;100956.31;;;25.65;16.09
42691;BME280;28306;55.744;37.578;2023-04-08T02:30:51;100955.50;;;25.65;16.24
42691;BME280;28306;55.744;37.578;2023-04-08T02:33:18;100964.50;;;25.65;16.19
42691;BME280;28306;55.744;37.578;2023-04-08T02:35:44;100958.22;;;25.65;16.29
42691;BME280;28306;55.744;37.578;2023-04-08T02:38:10;100976.50;;;25.64;16.11
42691;BME280;28306;55.744;37.578;2023-04-08T02:40:35;100969.38;;;25.63;16.15
42691;BME280;28306;55.744;37.578;2023-04-08T02:43:02;100966.66;;;25.63;16.48
42691;BME280;28306;55.744;37.578;2023-04-08T02:45:32;100972.09;;;25.63;16.18
42691;BME280;28306;55.744;37.578;2023-04-08T02:47:58;100963.91;;;25.63;16.19
42691;BME280;28306;55.744;37.578;2023-04-08T02:50:25;100974.81;;;25.63;16.26
42691;BME280;28306;55.744;37.578;2023-04-08T02:52:51;100975.88;;;25.62;16.19
42691;BME280;28306;55.744;37.578;2023-04-08T02:55:16;100968.56;;;25.63;16.36
42691;BME280;28306;55.744;37.578;2023-04-08T02:57:42;100972.34;;;25.62;16.56
42691;BME280;28306;55.744;37.578;2023-04-08T03:00:08;100974.00;;;25.63;16.35
42691;BME280;28306;55.744;37.578;2023-04-08T03:02:33;100974.00;;;25.63;16.32
42691;BME280;28306;55.744;37.578;2023-04-08T03:04:59;100974.25;;;25.61;16.58
42691;BME280;28306;55.744;37.578;2023-04-08T03:07:25;100977.78;;;25.62;16.27
42691;BME280;28306;55.744;37.578;2023-04-08T03:09:50;100979.69;;;25.61;16.42
42691;BME280;28306;55.744;37.578;2023-04-08T03:12:16;100971.75;;;25.60;16.29
42691;BME280;28306;55.744;37.578;2023-04-08T03:14:41;100972.56;;;25.60;16.45
42691;BME280;28306;55.744;37.578;2023-04-08T03:17:07;100978.03;;;25.60;16.20
42691;BME280;28306;55.744;37.578;2023-04-08T03:19:32;100974.47;;;25.60;16.16
42691;BME280;28306;55.744;37.578;2023-04-08T03:21:58;100981.81;;;25.59;16.17
42691;BME280;28306;55.744;37.578;2023-04-08T03:24:23;100987.03;;;25.61;16.47
42691;BME280;28306;55.744;37.578;2023-04-08T03:26:49;100987.03;;;25.61;16.32
42691;BME280;28306;55.744;37.578;2023-04-08T03:29:15;100985.38;;;25.60;16.19
42691;BME280;28306;55.744;37.578;2023-04-08T03:31:40;100986.19;;;25.60;16.13
42691;BME280;28306;55.744;37.578;2023-04-08T03:34:06;100986.19;;;25.60;16.49
42691;BME280;28306;55.744;37.578;2023-04-08T03:36:31;100986.19;;;25.60;16.42
42691;BME280;28306;55.744;37.578;2023-04-08T03:38:57;100986.19;;;25.60;16.27
42691;BME280;28306;55.744;37.578;2023-04-08T03:41:22;100982.66;;;25.60;16.44
42691;BME280;28306;55.744;37.578;2023-04-08T03:43:48;100987.25;;;25.59;16.27
42691;BME280;28306;55.744;37.578;2023-04-08T03:46:13;100979.94;;;25.60;16.12
42691;BME280;28306;55.744;37.578;2023-04-08T03:48:39;100987.25;;;25.59;16.50
42691;BME280;28306;55.744;37.578;2023-04-08T03:51:04;100980.75;;;25.60;16.18
42691;BME280;28306;55.744;37.578;2023-04-08T03:53:30;100986.19;;;25.60;16.30
42691;BME280;28306;55.744;37.578;2023-04-08T03:55:55;100988.09;;;25.60;16.47
42691;BME280;28306;55.744;37.578;2023-04-08T03:58:21;100987.03;;;25.61;16.52
42691;BME280;28306;55.744;37.578;2023-04-08T04:00:46;100991.66;;;25.60;16.29
42691;BME280;28306;55.744;37.578;2023-04-08T04:03:12;100994.38;;;25.60;16.27
42691;BME280;28306;55.744;37.578;2023-04-08T04:05:38;100994.38;;;25.60;16.14
42691;BME280;28306;55.744;37.578;2023-04-08T04:08:03;100999.81;;;25.60;16.30
42691;BME280;28306;55.744;37.578;2023-04-08T04:10:29;100999.81;;;25.60;16.45
42691;BME280;28306;55.744;37.578;2023-04-08T04:12:54;101000.66;;;25.61;16.23
42691;BME280;28306;55.744;37.578;2023-04-08T04:15:20;100995.19;;;25.61;16.13
42691;BME280;28306;55.744;37.578;2023-04-08T04:17:48;100998.78;;;25.61;16.17
42691;BME280;28306;55.744;37.578;2023-04-08T04:20:15;100996.03;;;25.61;16.17
42691;BME280;28306;55.744;37.578;2023-04-08T04:22:40;100996.03;;;25.61;16.24
42691;BME280;28306;55.744;37.578;2023-04-08T04:25:06;100994.13;;;25.62;16.27
42691;BME280;28306;55.744;37.578;2023-04-08T04:27:32;100993.09;;;25.63;16.29
42691;BME280;28306;55.744;37.578;2023-04-08T04:29:57;100994.97;;;25.62;16.59
42691;BME280;28306;55.744;37.578;2023-04-08T04:32:24;100996.63;;;25.63;16.55
42691;BME280;28306;55.744;37.578;2023-04-08T04:34:50;101002.91;;;25.64;16.21
42691;BME280;28306;55.744;37.578;2023-04-08T04:37:15;101001.25;;;25.63;16.31
42691;BME280;28306;55.744;37.578;2023-04-08T04:39:41;100996.63;;;25.63;16.18
42691;BME280;28306;55.744;37.578;2023-04-08T04:42:06;100999.34;;;25.63;16.52
42691;BME280;28306;55.744;37.578;2023-04-08T04:44:32;101001.25;;;25.63;16.25
42691;BME280;28306;55.744;37.578;2023-04-08T04:46:57;101001.25;;;25.63;16.26
42691;BME280;28306;55.744;37.578;2023-04-08T04:49:23;101002.06;;;25.63;16.36
42691;BME280;28306;55.744;37.578;2023-04-08T04:51:48;100998.28;;;25.64;16.29
42691;BME280;28306;55.744;37.578;2023-04-08T04:54:14;100999.94;;;25.65;16.61
42691;BME280;28306;55.744;37.578;2023-04-08T04:56:39;101007.28;;;25.65;16.38
42691;BME280;28306;55.744;37.578;2023-04-08T04:59:05;100997.22;;;25.65;16.42
42691;BME280;28306;55.744;37.578;2023-04-08T05:01:30;101009.78;;;25.66;16.44
42691;BME280;28306;55.744;37.578;2023-04-08T05:03:56;101005.38;;;25.65;16.68
42691;BME280;28306;55.744;37.578;2023-04-08T05:06:22;101004.31;;;25.66;16.52
42691;BME280;28306;55.744;37.578;2023-04-08T05:08:47;101011.44;;;25.67;16.34
42691;BME280;28306;55.744;37.578;2023-04-08T05:11:13;101007.06;;;25.66;16.39
42691;BME280;28306;55.744;37.578;2023-04-08T05:13:38;101013.31;;;25.67;16.48
42691;BME280;28306;55.744;37.578;2023-04-08T05:16:04;101012.50;;;25.66;16.44
42691;BME280;28306;55.744;37.578;2023-04-08T05:18:30;101019.63;;;25.67;16.35
42691;BME280;28306;55.744;37.578;2023-04-08T05:20:55;101016.06;;;25.67;16.31
42691;BME280;28306;55.744;37.578;2023-04-08T05:23:21;101016.91;;;25.67;16.41
42691;BME280;28306;55.744;37.578;2023-04-08T05:25:46;101019.63;;;25.67;16.54
42691;BME280;28306;55.744;37.578;2023-04-08T05:28:12;101023.16;;;25.68;16.50
42691;BME280;28306;55.744;37.578;2023-04-08T05:30:37;101021.25;;;25.68;16.64
42691;BME280;28306;55.744;37.578;2023-04-08T05:33:03;101021.25;;;25.68;16.49
42691;BME280;28306;55.744;37.578;2023-04-08T05:35:28;101029.44;;;25.68;16.71
42691;BME280;28306;55.744;37.578;2023-04-08T05:37:54;101027.53;;;25.69;16.42
42691;BME280;28306;55.744;37.578;2023-04-08T05:40:19;101027.53;;;25.69;16.56
42691;BME280;28306;55.744;37.578;2023-04-08T05:42:45;101028.38;;;25.69;16.68
42691;BME280;28306;55.744;37.578;2023-04-08T05:45:10;101026.47;;;25.70;16.46
42691;BME280;28306;55.744;37.578;2023-04-08T05:47:36;101026.25;;;25.71;16.56
42691;BME280;28306;55.744;37.578;2023-04-08T05:50:01;101025.44;;;25.71;16.43
42691;BME280;28306;55.744;37.578;2023-04-08T05:52:27;101032.75;;;25.70;16.74
42691;BME280;28306;55.744;37.578;2023-04-08T05:54:52;101027.31;;;25.70;16.54
42691;BME280;28306;55.744;37.578;2023-04-08T05:57:18;101033.38;;;25.72;16.75
42691;BME280;28306;55.744;37.578;2023-04-08T05:59:43;101032.50;;;25.72;16.62
42691;BME280;28306;55.744;37.578;2023-04-08T06:02:09;101028.72;;;25.73;16.59
42691;BME280;28306;55.744;37.578;2023-04-08T06:04:34;101028.72;;;25.73;16.66
42691;BME280;28306;55.744;37.578;2023-04-08T06:06:59;101024.94;;;25.74;16.42
42691;BME280;28306;55.744;37.578;2023-04-08T06:09:27;101026.81;;;25.73;16.49
42691;BME280;28306;55.744;37.578;2023-04-08T06:11:52;101020.31;;;25.75;16.66
42691;BME280;28306;55.744;37.578;2023-04-08T06:14:18;101030.16;;;25.76;16.52
42691;BME280;28306;55.744;37.578;2023-04-08T06:16:44;101027.44;;;25.76;16.39
42691;BME280;28306;55.744;37.578;2023-04-08T06:19:10;101025.28;;;25.78;16.50
42691;BME280;28306;55.744;37.578;2023-04-08T06:21:35;101026.13;;;25.78;16.50
42691;BME280;28306;55.744;37.578;2023-04-08T06:24:01;101024.47;;;25.77;16.61
42691;BME280;28306;55.744;37.578;2023-04-08T06:26:26;101025.28;;;25.78;16.69
42691;BME280;28306;55.744;37.578;2023-04-08T06:28:52;101026.97;;;25.79;16.52
42691;BME280;28306;55.744;37.578;2023-04-08T06:31:17;101031.31;;;25.80;16.53
42691;BME280;28306;55.744;37.578;2023-04-08T06:33:43;101028.59;;;25.80;16.51
42691;BME280;28306;55.744;37.578;2023-04-08T06:36:08;101027.53;;;25.81;16.53
42691;BME280;28306;55.744;37.578;2023-04-08T06:38:34;101030.28;;;25.81;16.65
42691;BME280;28306;55.744;37.578;2023-04-08T06:41:05;101020.19;;;25.81;16.71
42691;BME280;28306;55.744;37.578;2023-04-08T06:43:31;101018.53;;;25.80;16.51
42691;BME280;28306;55.744;37.578;2023-04-08T06:45:57;101023.75;;;25.82;16.66
42691;BME280;28306;55.744;37.578;2023-04-08T06:48:23;101025.63;;;25.81;16.52
42691;BME280;28306;55.744;37.578;2023-04-08T06:50:53;101020.19;;;25.81;16.51
42691;BME280;28306;55.744;37.578;2023-04-08T06:53:19;101027.31;;;25.82;16.47
42691;BME280;28306;55.744;37.578;2023-04-08T06:55:45;101021.84;;;25.82;16.73
42691;BME280;28306;55.744;37.578;2023-04-08T06:58:10;101028.13;;;25.83;16.44
42691;BME280;28306;55.744;37.578;2023-04-08T07:00:35;101037.16;;;25.83;16.55
42691;BME280;28306;55.744;37.578;2023-04-08T07:03:01;101029.56;;;25.85;16.39
42691;BME280;28306;55.744;37.578;2023-04-08T07:05:26;101018.66;;;25.85;16.58
42691;BME280;28306;55.744;37.578;2023-04-08T07:07:52;101023.06;;;25.86;16.28
42691;BME280;28306;55.744;37.578;2023-04-08T07:10:17;101023.06;;;25.86;16.28
42691;BME280;28306;55.744;37.578;2023-04-08T07:12:43;101023.88;;;25.87;16.43
42691;BME280;28306;55.744;37.578;2023-04-08T07:15:08;101015.69;;;25.87;16.40
42691;BME280;28306;55.744;37.578;2023-04-08T07:17:34;101012.72;;;25.88;16.64
42691;BME280;28306;55.744;37.578;2023-04-08T07:19:59;101013.53;;;25.89;16.44
42691;BME280;28306;55.744;37.578;2023-04-08T07:22:25;101011.66;;;25.89;16.72
42691;BME280;28306;55.744;37.578;2023-04-08T07:24:51;101017.94;;;25.90;16.38
42691;BME280;28306;55.744;37.578;2023-04-08T07:27:16;101019.59;;;25.91;16.42
42691;BME280;28306;55.744;37.578;2023-04-08T07:29:42;101011.19;;;25.93;16.39
42691;BME280;28306;55.744;37.578;2023-04-08T07:32:07;101010.94;;;25.94;16.32
42691;BME280;28306;55.744;37.578;2023-04-08T07:34:33;101012.59;;;25.95;16.45
42691;BME280;28306;55.744;37.578;2023-04-08T07:36:59;101010.72;;;25.96;16.45
42691;BME280;28306;55.744;37.578;2023-04-08T07:39:25;101013.22;;;25.97;16.38
42691;BME280;28306;55.744;37.578;2023-04-08T07:41:51;101011.91;;;26.00;16.51
42691;BME280;28306;55.744;37.578;2023-04-08T07:44:16;101009.75;;;26.02;16.46
42691;BME280;28306;55.744;37.578;2023-04-08T07:46:42;101010.59;;;26.02;16.31
42691;BME280;28306;55.744;37.578;2023-04-08T07:49:09;101009.50;;;26.03;16.38
42691;BME280;28306;55.744;37.578;2023-04-08T07:51:35;101007.63;;;26.04;16.37
42691;BME280;28306;55.744;37.578;2023-04-08T07:54:00;101012.84;;;26.05;16.40
42691;BME280;28306;55.744;37.578;2023-04-08T07:56:26;101012.84;;;26.05;16.61
42691;BME280;28306;55.744;37.578;2023-04-08T07:58:51;101008.22;;;26.06;16.48
42691;BME280;28306;55.744;37.578;2023-04-08T08:01:18;101010.94;;;26.06;16.46
42691;BME280;28306;55.744;37.578;2023-04-08T08:03:45;101010.69;;;26.07;16.56
42691;BME280;28306;55.744;37.578;2023-04-08T08:06:11;101008.78;;;26.08;16.24
42691;BME280;28306;55.744;37.578;2023-04-08T08:08:37;101008.56;;;26.10;16.39
42691;BME280;28306;55.744;37.578;2023-04-08T08:11:02;101002.03;;;26.11;16.19
42691;BME280;28306;55.744;37.578;2023-04-08T08:13:28;101005.81;;;26.10;16.30
42691;BME280;28306;55.744;37.578;2023-04-08T08:15:53;101009.41;;;26.10;16.54
42691;BME280;28306;55.744;37.578;2023-04-08T08:18:19;101000.13;;;26.11;16.39
42691;BME280;28306;55.744;37.578;2023-04-08T08:20:45;101002.03;;;26.11;16.45
42691;BME280;28306;55.744;37.578;2023-04-08T08:23:10;101007.50;;;26.11;16.22
42691;BME280;28306;55.744;37.578;2023-04-08T08:25:36;101004.75;;;26.11;16.25
42691;BME280;28306;55.744;37.578;2023-04-08T08:28:01;101001.22;;;26.10;16.22
42691;BME280;28306;55.744;37.578;2023-04-08T08:30:27;101003.94;;;26.10;16.06
42691;BME280;28306;55.744;37.578;2023-04-08T08:32:52;101001.22;;;26.10;16.39
42691;BME280;28306;55.744;37.578;2023-04-08T08:35:18;100997.41;;;26.11;16.17
42691;BME280;28306;55.744;37.578;2023-04-08T08:37:43;100986.72;;;26.10;16.07
42691;BME280;28306;55.744;37.578;2023-04-08T08:40:09;100989.22;;;26.11;16.06
42691;BME280;28306;55.744;37.578;2023-04-08T08:42:34;100984.84;;;26.10;16.09
42691;BME280;28306;55.744;37.578;2023-04-08T08:45:03;100986.50;;;26.11;16.19
42691;BME280;28306;55.744;37.578;2023-04-08T08:47:29;100992.78;;;26.12;16.35
42691;BME280;28306;55.744;37.578;2023-04-08T08:49:55;100986.50;;;26.11;16.19
42691;BME280;28306;55.744;37.578;2023-04-08T08:52:20;100984.63;;;26.12;16.20
42691;BME280;28306;55.744;37.578;2023-04-08T08:54:46;100981.88;;;26.12;16.20
42691;BME280;28306;55.744;37.578;2023-04-08T08:57:18;100979.16;;;26.12;16.20
42691;BME280;28306;55.744;37.578;2023-04-08T08:59:46;100972.63;;;26.13;16.16
42691;BME280;28306;55.744;37.578;2023-04-08T09:02:25;100983.28;;;26.14;16.38
42691;BME280;28306;55.744;37.578;2023-04-08T09:04:56;100983.28;;;26.14;16.29
42691;BME280;28306;55.744;37.578;2023-04-08T09:07:23;100981.41;;;26.15;16.34
42691;BME280;28306;55.744;37.578;2023-04-08T09:09:50;100981.97;;;26.17;16.53
42691;BME280;28306;55.744;37.578;2023-04-08T09:12:15;100974.63;;;26.17;16.29
42691;BME280;28306;55.744;37.578;2023-04-08T09:14:41;100978.19;;;26.18;16.51
42691;BME280;28306;55.744;37.578;2023-04-08T09:17:07;100980.94;;;26.18;16.53
42691;BME280;28306;55.744;37.578;2023-04-08T09:19:32;100979.00;;;26.18;16.42
42691;BME280;28306;55.744;37.578;2023-04-08T09:22:08;100977.97;;;26.19;16.20
42691;BME280;28306;55.744;37.578;2023-04-08T09:24:34;100980.69;;;26.19;16.24
42691;BME280;28306;55.744;37.578;2023-04-08T09:27:01;100976.03;;;26.20;16.28
42691;BME280;28306;55.744;37.578;2023-04-08T09:29:27;100977.72;;;26.21;16.21
42691;BME280;28306;55.744;37.578;2023-04-08T09:31:53;100968.44;;;26.22;16.40
42691;BME280;28306;55.744;37.578;2023-04-08T09:34:18;100973.91;;;26.22;16.49
42691;BME280;28306;55.744;37.578;2023-04-08T09:36:45;100964.66;;;26.23;16.32
42691;BME280;28306;55.744;37.578;2023-04-08T09:39:13;100972.84;;;26.23;16.33
42691;BME280;28306;55.744;37.578;2023-04-08T09:41:38;100975.31;;;26.24;16.32
42691;BME280;28306;55.744;37.578;2023-04-08T09:44:05;100960.00;;;26.23;16.36
42691;BME280;28306;55.744;37.578;2023-04-08T09:49:10;100966.06;;;26.25;16.31
42691;BME280;28306;55.744;37.578;2023-04-08T09:51:43;100966.91;;;26.26;16.32
42691;BME280;28306;55.744;37.578;2023-04-08T09:54:14;100966.91;;;26.26;16.32
42691;BME280;28306;55.744;37.578;2023-04-08T09:56:57;100957.66;;;26.27;16.46
42691;BME280;28306;55.744;37.578;2023-04-08T09:59:26;100959.28;;;26.28;16.63
42691;BME280;28306;55.744;37.578;2023-04-08T10:01:53;100951.94;;;26.29;16.46
42691;BME280;28306;55.744;37.578;2023-04-08T10:04:19;100950.84;;;26.30;16.37
42691;BME280;28306;55.744;37.578;2023-04-08T10:06:47;100951.72;;;26.30;16.63
42691;BME280;28306;55.744;37.578;2023-04-08T10:09:15;100951.72;;;26.30;16.31
42691;BME280;28306;55.744;37.578;2023-04-08T10:11:41;100943.28;;;26.32;16.50
42691;BME280;28306;55.744;37.578;2023-04-08T10:14:08;100946.00;;;26.32;16.63
42691;BME280;28306;55.744;37.578;2023-04-08T10:16:33;100939.47;;;26.33;16.38
42691;BME280;28306;55.744;37.578;2023-04-08T10:18:59;100949.56;;;26.32;16.66
42691;BME280;28306;55.744;37.578;2023-04-08T10:21:35;100951.22;;;26.33;16.41
42691;BME280;28306;55.744;37.578;2023-04-08T10:24:01;100940.03;;;26.35;16.46
42691;BME280;28306;55.744;37.578;2023-04-08T10:26:31;100933.75;;;26.34;16.48
42691;BME280;28306;55.744;37.578;2023-04-08T10:29:45;100938.97;;;26.36;16.42
42691;BME280;28306;55.744;37.578;2023-04-08T10:31:48;100935.44;;;26.35;16.29
42691;BME280;28306;55.744;37.578;2023-04-08T10:34:18;100937.91;;;26.37;16.37
42691;BME280;28306;55.744;37.578;2023-04-08T10:36:44;100942.28;;;26.38;16.55
42691;BME280;28306;55.744;37.578;2023-04-08T10:39:11;100937.66;;;26.38;16.41
42691;BME280;28306;55.744;37.578;2023-04-08T10:41:47;100926.75;;;26.38;16.22
42691;BME280;28306;55.744;37.578;2023-04-08T10:44:14;100933.59;;;26.41;16.42
42691;BME280;28306;55.744;37.578;2023-04-08T10:46:40;100938.00;;;26.42;16.56
42691;BME280;28306;55.744;37.578;2023-04-08T10:49:05;100932.28;;;26.43;16.32
42691;BME280;28306;55.744;37.578;2023-04-08T10:51:31;100930.38;;;26.44;16.35
42691;BME280;28306;55.744;37.578;2023-04-08T10:54:05;100931.00;;;26.46;16.47
42691;BME280;28306;55.744;37.578;2023-04-08T10:56:31;100923.63;;;26.47;16.64
42691;BME280;28306;55.744;37.578;2023-04-08T10:58:57;100925.28;;;26.48;16.71
42691;BME280;28306;55.744;37.578;2023-04-08T11:01:24;100914.13;;;26.49;16.45
42691;BME280;28306;55.744;37.578;2023-04-08T11:03:49;100909.25;;;26.51;16.57
42691;BME280;28306;55.744;37.578;2023-04-08T11:06:15;100910.91;;;26.52;16.46
42691;BME280;28306;55.744;37.578;2023-04-08T11:08:41;100910.66;;;26.54;16.60
42691;BME280;28306;55.744;37.578;2023-04-08T11:11:08;100911.47;;;26.54;16.44
42691;BME280;28306;55.744;37.578;2023-04-08T11:13:35;100904.09;;;26.55;16.69
42691;BME280;28306;55.744;37.578;2023-04-08T11:16:02;100895.66;;;26.56;16.57
42691;BME280;28306;55.744;37.578;2023-04-08T11:18:29;100895.44;;;26.58;16.50
42691;BME280;28306;55.744;37.578;2023-04-08T11:20:55;100897.09;;;26.59;16.52
42691;BME280;28306;55.744;37.578;2023-04-08T11:23:23;100901.50;;;26.60;16.39
42691;BME280;28306;55.744;37.578;2023-04-08T11:25:49;100894.94;;;26.61;16.43
42691;BME280;28306;55.744;37.578;2023-04-08T11:28:14;100899.09;;;26.64;16.35
42691;BME280;28306;55.744;37.578;2023-04-08T11:30:41;100888.97;;;26.64;16.50
42691;BME280;28306;55.744;37.578;2023-04-08T11:33:07;100896.13;;;26.65;16.31
42691;BME280;28306;55.744;37.578;2023-04-08T11:35:33;100896.97;;;26.66;16.30
42691;BME280;28306;55.744;37.578;2023-04-08T11:37:59;100899.44;;;26.67;16.54
42691;BME280;28306;55.744;37.578;2023-04-08T11:40:24;100891.81;;;26.69;16.36
42691;BME280;28306;55.744;37.578;2023-04-08T11:42:50;100891.81;;;26.69;16.30
42691;BME280;28306;55.744;37.578;2023-04-08T11:45:17;100887.22;;;26.70;16.27
42691;BME280;28306;55.744;37.578;2023-04-08T11:47:43;100891.31;;;26.72;16.33
42691;BME280;28306;55.744;37.578;2023-04-08T11:50:09;100889.44;;;26.73;16.46
42691;BME280;28306;55.744;37.578;2023-04-08T11:55:08;100879.91;;;26.75;16.28
42691;BME280;28306;55.744;37.578;2023-04-08T11:57:34;100869.84;;;26.76;16.25
42691;BME280;28306;55.744;37.578;2023-04-08T12:00:00;100873.94;;;26.78;16.20
42691;BME280;28306;55.744;37.578;2023-04-08T12:02:25;100875.88;;;26.78;16.04
42691;BME280;28306;55.744;37.578;2023-04-08T12:04:51;100873.72;;;26.80;16.21
42691;BME280;28306;55.744;37.578;2023-04-08T12:07:16;100865.25;;;26.82;16.28
42691;BME280;28306;55.744;37.578;2023-04-08T12:09:42;100872.38;;;26.83;16.20
42691;BME280;28306;55.744;37.578;2023-04-08T12:12:07;100869.41;;;26.84;16.28
42691;BME280;28306;55.744;37.578;2023-04-08T12:14:33;100871.91;;;26.86;16.08
42691;BME280;28306;55.744;37.578;2023-04-08T12:16:58;100866.19;;;26.87;16.39
42691;BME280;28306;55.744;37.578;2023-04-08T12:19:24;100861.28;;;26.89;16.31
42691;BME280;28306;55.744;37.578;2023-04-08T12:21:49;100862.97;;;26.90;16.42
42691;BME280;28306;55.744;37.578;2023-04-08T12:24:15;100859.16;;;26.91;16.27
42691;BME280;28306;55.744;37.578;2023-04-08T12:26:40;100863.28;;;26.94;16.48
42691;BME280;28306;55.744;37.578;2023-04-08T12:29:06;100860.28;;;26.95;16.19
42691;BME280;28306;55.744;37.578;2023-04-08T12:31:33;100858.97;;;26.98;16.42
42691;BME280;28306;55.744;37.578;2023-04-08T12:33:59;100866.09;;;26.99;16.27
42691;BME280;28306;55.744;37.578;2023-04-08T12:36:24;100861.22;;;27.01;16.16
42691;BME280;28306;55.744;37.578;2023-04-08T12:38:51;100847.31;;;27.03;16.24
42691;BME280;28306;55.744;37.578;2023-04-08T12:41:16;100847.88;;;27.05;16.40
42691;BME280;28306;55.744;37.578;2023-04-08T12:43:42;100849.28;;;27.07;16.21
42691;BME280;28306;55.744;37.578;2023-04-08T12:46:07;100841.41;;;27.11;16.28
42691;BME280;28306;55.744;37.578;2023-04-08T12:48:33;100842.56;;;27.15;16.22